Aérodrome :
LOGIN :

S'inscrire | Disclaimer

   EN    FR    IT 

 










Légende :    VFR   VFR Marginal   IFR   IFR Intensif   IFR Très Intensif
Visi : 
Plafond : 
>= 8 km
>= 3000ft
5 à 8 km
1000 à 3000 ft
1500m à 5 km
500 à 1000 ft
800 à 1500m
200 à 500 ft
< 800m
< 200 ft
Symboles :   Orages  Brouillard  Fortes neiges  Fortes précipitations  Vent > 20 kt
SIGMETs :   Divers  Orages  Givrage  Turbulence  Onde Orograph.  Cendres Volcan.







- Altitude de l'aérodrome : 495 ft
- Code IATA : BUD


LHBP - Budapest Ferihegy

DERNIER METAR :
  • 191130Z 09004KT 040V120 9000 NSC 12/04 Q1020 NOSIG

METARs EXPIRÉS :
  • 191100Z VRB03KT 9000 NSC 11/07 Q1020 NOSIG
  • 191030Z VRB02KT 8000 NSC 11/06 Q1021 NOSIG
  • 191000Z 13004KT 080V220 8000 NSC 10/05 Q1021 NOSIG
  • 190930Z VRB03KT 7000 NSC 08/05 Q1021 NOSIG
  • 190915Z 10004KT 040V130 6000 NSC 08/05 Q1021 NOSIG
  • 190900Z VRB03KT 4500 BR NSC 08/05 Q1021 BECMG 8000 NSW

TAF TAF LHBP
Valide du 19 à 12h jusqu'au 20 à 12h UTC


191115Z 1912/2012 VRB03KT CAVOK
BECMG 1916/1918 29005KT
BECMG 2004/2007 30010KT
Pas de NOTAMs connus pour ce terrain.



MET'MAP, la Météo Aéronautique d'un coup d'oeil ! - Copyright ORBIFLY Décembre 2007 - Disclaimer

ORBIFLY MET'MAP TEAM :

Programmation & Développement : Alexandra Zaïnal
Conception & Développement : Baudouin d'Aumeries
Co-Programmation & Développement : Marc-Olivier Méhu
Soutien technique & logistique : Manuel Goepfert

Contact : metmap@orbifly.com




SOURCES & CREDITS :

   NOAA